CMA CGM Butterfly — A8NO8 — position and weather

sailwx.info

Track history (hours):
 
Tides and Currents Weather Stations Pressure Air Temp Water Temp Dewpoint Dewpoint Depression Visibility Wind Speed Wind Dir Waves Ship Positions

CMA CGM Butterfly

Last reported at 2015-May-23 00:00 UTC. Time now 2015-May-28 18:07 UTC.
Position N 13°54' E 042°18'.

Length 350 m; draft 13.8 m.

Type: Ship (hazmat cat A). MMSI: 636091420.

Wind from 290 at 9 knots

Waves 0.5 meters (2 feet)

Barometer 1006.0 mb
Air temperature 30.0 ° C
Visibility: greater than 10.8 NM

Date/timePositionNaut miles runAvg speedWind from/ knotsBaromVisibWave heightAir tempDewpointWater temp
2015-May-23 00:00N 13°54' E 042°18'   290 / 91006.010.8 0.530.0
2015-May-18 04:15N 31°27' E 032°18'0 0.0
2015-May-18 03:31N 31°27' E 032°18'0 0.0
2015-May-18 02:34N 31°27' E 032°18'0 0.0
2015-May-17 22:31N 31°27' E 032°18'0 0.0
2015-May-17 21:31N 31°27' E 032°18'0 0.0
2015-May-17 20:31N 31°27' E 032°18'0 0.0
2015-May-17 19:31N 31°27' E 032°18'0 0.0
2015-May-17 18:34N 31°27' E 032°18'0 0.0
2015-May-17 17:33N 31°27' E 032°18'1 1.0
2015-May-17 16:33N 31°27' E 032°17'1313.3
2015-May-17 15:33N 31°37' E 032°06'1413.8
2015-May-17 14:33N 31°39' E 031°50'1010.2
2015-May-17 13:33N 31°30' E 031°46'2 0.5
2015-May-17 09:26N 31°28' E 031°45'0 0.0
2015-May-17 08:13N 31°28' E 031°45'0 0.0
2015-May-17 07:20N 31°28' E 031°45'0 0.0
2015-May-17 06:20N 31°28' E 031°45'0 0.0
2015-May-17 05:32N 31°28' E 031°45'0 0.0
2015-May-17 04:17N 31°28' E 031°45'0 0.0
2015-May-17 03:07N 31°28' E 031°45'0 0.0
2015-May-17 02:29N 31°28' E 031°45'0 0.0
2015-May-17 01:33N 31°28' E 031°46'29 8.8
2015-May-16 22:16N 31°55' E 031°33'912.2
2015-May-16 21:33N 31°59' E 031°24'1212.4
2015-May-16 20:34N 32°02' E 031°10'1212.0
2015-May-16 19:33N 32°05' E 030°56'1512.2
2015-May-16 18:19N 32°09' E 030°39'1112.6
2015-May-16 17:28N 32°12' E 030°27'1313.4
2015-May-16 16:32N 32°16' E 030°13'1313.3
2015-May-16 15:33N 32°19' E 029°58'1712.7
2015-May-16 14:15N 32°23' E 029°39'1312.5
2015-May-16 13:15N 32°26' E 029°24'2712.5
2015-May-16 11:07N 32°33' E 028°54'712.7
2015-May-16 10:33N 32°35' E 028°46'1712.9
2015-May-16 09:12N 32°40' E 028°26'912.7
2015-May-16 08:29N 32°42' E 028°15'6212.5
2015-May-16 03:32N 32°59' E 027°05'1211.9
2015-May-16 02:33N 33°02' E 026°51'2311.5
2015-May-16 00:34N 33°07' E 026°25'1312.1
2015-May-15 23:28N 33°11' E 026°10'1411.9
2015-May-15 22:16N 33°15' E 025°53'22213.1
2015-May-15 05:22N 34°14' E 021°36'1012.0
2015-May-15 04:33N 34°16' E 021°25'2512.1
2015-May-15 02:28N 34°23' E 020°55'1311.9
2015-May-15 01:23N 34°26' E 020°40'1011.6
2015-May-15 00:33N 34°28' E 020°29'3711.6
2015-May-14 21:19N 34°38' E 019°45'4812.2
2015-May-14 17:21N 34°50' E 018°48'1312.4
2015-May-14 16:16N 34°54' E 018°33'911.9
2015-May-14 15:31N 34°57' E 018°22'1211.9
2015-May-14 14:31N 35°00' E 018°08'9112.3
2015-May-14 07:09N 35°24' E 016°22'4812.6
2015-May-14 03:21N 35°36' E 015°25'1012.9
2015-May-14 02:33N 35°39' E 015°12'1312.8
2015-May-14 01:33N 35°42' E 014°57'1212.5
2015-May-14 00:33N 35°44' E 014°42'10 9.5
2015-May-13 23:33N 35°49' E 014°32'0 0.1
2015-May-13 22:13N 35°49' E 014°32'0 0.0
2015-May-13 21:31N 35°49' E 014°32'0 0.0
2015-May-13 20:31N 35°49' E 014°32'0 0.0
2015-May-13 19:31N 35°49' E 014°32'0 0.0
2015-May-13 18:22N 35°49' E 014°32'0 0.0
2015-May-13 16:16N 35°49' E 014°32'0 0.0
2015-May-13 15:29N 35°49' E 014°32'0 0.0
2015-May-13 14:28N 35°49' E 014°32'0 0.0
2015-May-13 13:25N 35°49' E 014°32'0 0.0
2015-May-13 12:31N 35°49' E 014°32'0 0.0
2015-May-13 11:31N 35°49' E 014°32'0 0.0
2015-May-13 10:22N 35°49' E 014°32'0 0.0
2015-May-13 08:25N 35°49' E 014°32'0 0.0
2015-May-13 07:28N 35°49' E 014°32'0 0.0
2015-May-13 06:10N 35°49' E 014°32'0 0.0
2015-May-13 04:19N 35°49' E 014°32'0 0.0
2015-May-13 03:31N 35°49' E 014°32'0 0.0
2015-May-13 02:31N 35°49' E 014°32'  
Track history (hours):
 
Tides and Currents Weather Stations Pressure Air Temp Water Temp Dewpoint Dewpoint Depression Visibility Wind Speed Wind Dir Waves Ship Positions

CMA CGM Butterfly

Last reported at 2015-May-23 00:00 UTC. Time now 2015-May-28 18:07 UTC.
Position N 13°54' E 042°18'.

Length 350 m; draft 13.8 m.

Type: Ship (hazmat cat A). MMSI: 636091420.

Wind from 290 at 9 knots

Waves 0.5 meters (2 feet)

Barometer 1006.0 mb
Air temperature 30.0 ° C
Visibility: greater than 10.8 NM

Date/timePositionNaut miles runAvg speedWind from/ knotsBaromVisibWave heightAir tempDewpointWater temp
2015-May-23 00:00N 13°54' E 042°18'   290 / 91006.010.8 0.530.0
2015-May-18 04:15N 31°27' E 032°18'0 0.0
2015-May-18 03:31N 31°27' E 032°18'0 0.0
2015-May-18 02:34N 31°27' E 032°18'0 0.0
2015-May-17 22:31N 31°27' E 032°18'0 0.0
2015-May-17 21:31N 31°27' E 032°18'0 0.0
2015-May-17 20:31N 31°27' E 032°18'0 0.0
2015-May-17 19:31N 31°27' E 032°18'0 0.0
2015-May-17 18:34N 31°27' E 032°18'0 0.0
2015-May-17 17:33N 31°27' E 032°18'1 1.0
2015-May-17 16:33N 31°27' E 032°17'1313.3
2015-May-17 15:33N 31°37' E 032°06'1413.8
2015-May-17 14:33N 31°39' E 031°50'1010.2
2015-May-17 13:33N 31°30' E 031°46'2 0.5
2015-May-17 09:26N 31°28' E 031°45'0 0.0
2015-May-17 08:13N 31°28' E 031°45'0 0.0
2015-May-17 07:20N 31°28' E 031°45'0 0.0
2015-May-17 06:20N 31°28' E 031°45'0 0.0
2015-May-17 05:32N 31°28' E 031°45'0 0.0
2015-May-17 04:17N 31°28' E 031°45'0 0.0
2015-May-17 03:07N 31°28' E 031°45'0 0.0
2015-May-17 02:29N 31°28' E 031°45'0 0.0
2015-May-17 01:33N 31°28' E 031°46'29 8.8
2015-May-16 22:16N 31°55' E 031°33'912.2
2015-May-16 21:33N 31°59' E 031°24'1212.4
2015-May-16 20:34N 32°02' E 031°10'1212.0
2015-May-16 19:33N 32°05' E 030°56'1512.2
2015-May-16 18:19N 32°09' E 030°39'1112.6
2015-May-16 17:28N 32°12' E 030°27'1313.4
2015-May-16 16:32N 32°16' E 030°13'1313.3
2015-May-16 15:33N 32°19' E 029°58'1712.7
2015-May-16 14:15N 32°23' E 029°39'1312.5
2015-May-16 13:15N 32°26' E 029°24'2712.5
2015-May-16 11:07N 32°33' E 028°54'712.7
2015-May-16 10:33N 32°35' E 028°46'1712.9
2015-May-16 09:12N 32°40' E 028°26'912.7
2015-May-16 08:29N 32°42' E 028°15'6212.5
2015-May-16 03:32N 32°59' E 027°05'1211.9
2015-May-16 02:33N 33°02' E 026°51'2311.5
2015-May-16 00:34N 33°07' E 026°25'1312.1
2015-May-15 23:28N 33°11' E 026°10'1411.9
2015-May-15 22:16N 33°15' E 025°53'22213.1
2015-May-15 05:22N 34°14' E 021°36'1012.0
2015-May-15 04:33N 34°16' E 021°25'2512.1
2015-May-15 02:28N 34°23' E 020°55'1311.9
2015-May-15 01:23N 34°26' E 020°40'1011.6
2015-May-15 00:33N 34°28' E 020°29'3711.6
2015-May-14 21:19N 34°38' E 019°45'4812.2
2015-May-14 17:21N 34°50' E 018°48'1312.4
2015-May-14 16:16N 34°54' E 018°33'911.9
2015-May-14 15:31N 34°57' E 018°22'1211.9
2015-May-14 14:31N 35°00' E 018°08'9112.3
2015-May-14 07:09N 35°24' E 016°22'4812.6
2015-May-14 03:21N 35°36' E 015°25'1012.9
2015-May-14 02:33N 35°39' E 015°12'1312.8
2015-May-14 01:33N 35°42' E 014°57'1212.5
2015-May-14 00:33N 35°44' E 014°42'10 9.5
2015-May-13 23:33N 35°49' E 014°32'0 0.1
2015-May-13 22:13N 35°49' E 014°32'0 0.0
2015-May-13 21:31N 35°49' E 014°32'0 0.0
2015-May-13 20:31N 35°49' E 014°32'0 0.0
2015-May-13 19:31N 35°49' E 014°32'0 0.0
2015-May-13 18:22N 35°49' E 014°32'0 0.0
2015-May-13 16:16N 35°49' E 014°32'0 0.0
2015-May-13 15:29N 35°49' E 014°32'0 0.0
2015-May-13 14:28N 35°49' E 014°32'0 0.0
2015-May-13 13:25N 35°49' E 014°32'0 0.0
2015-May-13 12:31N 35°49' E 014°32'0 0.0
2015-May-13 11:31N 35°49' E 014°32'0 0.0
2015-May-13 10:22N 35°49' E 014°32'0 0.0
2015-May-13 08:25N 35°49' E 014°32'0 0.0
2015-May-13 07:28N 35°49' E 014°32'0 0.0
2015-May-13 06:10N 35°49' E 014°32'0 0.0
2015-May-13 04:19N 35°49' E 014°32'0 0.0
2015-May-13 03:31N 35°49' E 014°32'0 0.0
2015-May-13 02:31N 35°49' E 014°32'  

Dump ship's entire track history